NEODyS-2

Near Earth Objects - Dynamic Site
NEODyS ∴ Observatories ∴ Site 691 ∴ Obs & residuals
Contact »
691  ▹ 
OBSERVATIONS AND RESIDUALS

691-Steward Observatory, Kitt Peak-Spacewatch

Detections | Residuals | Detections & Residuals

[1-200] [201-400] [401-600] [601-800] [801-1000] [1001-1200] [1201-1400] [1401-1600] [1601-1800] [1801-2000] [2001-2200] [2201-2400] [2401-2600] [2601-2800] [2801-3000] [3001-3200] [3201-3400] [3401-3600] [3601-3800] [3801-4000] [4001-4200] [4201-4400] [4401-4600] [4601-4800] [4801-5000] [5001-5200] [5201-5400] [5401-5600] [5601-5800] [5801-6000] [6001-6200] [6201-6400] [6401-6600] [6601-6800] [6801-7000] [7001-7200] [7201-7400] [7401-7600] [7601-7800] [7801-8000] [8001-8200] [8201-8400] [8401-8600] [8601-8800] [8801-9000] [9001-9200] [9201-9400] [9401-9600] [9601-9800] [9801-10000] [10001-10200] [10201-10400] [10401-10600] [10601-10800] [10801-11000] [11001-11200] [11201-11400] [11401-11600] [11601-11800] [11801-12000] [12001-12200] [12201-12400] [12401-12600] [12601-12800] [12801-13000] [13001-13200] [13201-13400] [13401-13600] [13601-13800] [13801-14000] [14001-14200] [14201-14400] [14401-14600] [14601-14800] [14801-15000] [15001-15200] [15201-15400] [15401-15600] [15601-15800] [15801-16000] [16001-16200] [16201-16400] [16401-16600] [16601-16800] [16801-17000] [17001-17200] [17201-17400] [17401-17600] [17601-17800] [17801-18000] [18001-18200] [18201-18400] [18401-18600] [18601-18800] [18801-19000] [19001-19200] [19201-19400] [19401-19600] [19601-19800] [19801-20000] [20001-20200] [20201-20400] [20401-20600] [20601-20800] [20801-21000] [21001-21200] [21201-21400] [21401-21600] [21601-21800] [21801-22000] [22001-22200] [22201-22400] [22401-22600] [22601-22800] [22801-23000] [23001-23200] [23201-23400] [23401-23600] [23601-23800] [23801-24000] [24001-24200] [24201-24400] [24401-24600] [24601-24800] [24801-25000] [25001-25200] [25201-25400] [25401-25600] [25601-25800] [25801-26000] [26001-26200] [26201-26400] [26401-26600] [26601-26800] [26801-27000] [27001-27200] [27201-27400] [27401-27600] [27601-27800] [27801-28000] [28001-28200] [28201-28400] [28401-28600] [28601-28800] [28801-29000] [29001-29200] [29201-29400] [29401-29600] [29601-29800] [29801-30000] [30001-30200] [30201-30400] [30401-30600] [30601-30800] [30801-31000] [31001-31200] [31201-31400] [31401-31600] [31601-31800] [31801-32000] [32001-32200] [32201-32400] [32401-32600] [32601-32800] [32801-33000] [33001-33200] [33201-33400] [33401-33600] [33601-33800] [33801-34000] [34001-34200] [34201-34400] [34401-34600] [34601-34800] [34801-35000] [35001-35200] [35201-35400] [35401-35600] [35601-35800] [35801-36000] [36001-36200] [36201-36400] [36401-36600] [36601-36800] [36801-37000] [37001-37200] [37201-37400] [37401-37600] [37601-37800] [37801-38000] [38001-38200] [38201-38400] [38401-38600] [38601-38800] [38801-39000] [39001-39200] [39201-39400] [39401-39600] [39601-39800] [39801-40000] [40001-40200] [40201-40400] [40401-40600] [40601-40800] [40801-41000] [41001-41200] [41201-41400] [41401-41600] [41601-41800] [41801-42000] [42001-42200] [42201-42400] [42401-42600] [42601-42800] [42801-43000] [43001-43200] [43201-43400] [43401-43600] [43601-43800] [43801-44000] [44001-44200] [44201-44400] [44401-44600] [44601-44800] [44801-45000] [45001-45200] [45201-45400] [45401-45600] [45601-45800] [45801-46000] [46001-46200] [46201-46400] [46401-46600] [46601-46800] [46801-47000] [47001-47200] [47201-47400] [47401-47600] [47601-47800] [47801-48000] [48001-48200] [48201-48400] [48401-48600] [48601-48800] [48801-49000] [49001-49200] [49201-49400] [49401-49600] [49601-49800] [49801-50000] [50001-50200] [50201-50388]

Designation T Tech N Date Right Ascension Declination Apparent Magnitude Star Catalog Site code χ Used A Used M
yr-mo-day precision hr:min:sec precision rms F bias residual deg min sec precision rms F bias residual mag/col rms residual
2017FJ90 O C 2017-04-16.23857 1.000E-05 13:22:43.280 1.500E-01 0.500 F 0.142 -0.152 +09° 51' 54.40" 1.000E-01 0.500 F 0.153 -0.792 19.7 V 0.70 -0.19 o 691 1.62 Yes Yes
2017FD65 O C H 2017-04-16.24152 1.000E-05 13:24:55.600 1.500E-01 0.500 F 0.141 -0.241 +12° 52' 28.80" 1.000E-01 0.500 F 0.164 -0.267 19.9 R 0.70 0.02 o 691 0.73 Yes Yes
2017GV6 O C H 2017-04-16.29905 1.000E-05 13:36:34.090 1.500E-01 0.500 F 0.163 -0.239 -02° 02' 59.40" 1.000E-01 0.500 F 0.044 0.084 o 691 0.52 Yes No
2017GV6 O C H 2017-04-16.30061 1.000E-05 13:36:33.160 1.500E-01 0.500 F 0.163 0.044 -02° 03' 11.90" 1.000E-01 0.500 F 0.044 -0.245 o 691 0.51 Yes No
2017GK4 O C H 2017-04-16.31521 1.000E-05 10:39:48.610 1.500E-01 0.500 F 0.237 -0.043 +06° 48' 22.10" 1.000E-01 0.500 F 0.268 0.320 o 691 0.65 Yes No
2017GK4 O C H 2017-04-16.31677 1.000E-05 10:39:48.130 1.500E-01 0.500 F 0.237 -0.004 +06° 48' 40.00" 1.000E-01 0.500 F 0.268 0.009 o 691 0.02 Yes No
2017FE101 O C K 2017-04-16.33066 1.000E-05 11:53:23.450 1.500E-01 0.500 F 0.046 0.402 +11° 08' 31.00" 1.000E-01 0.500 F 0.244 0.191 o 691 0.90 Yes No
2017FE65 O C K 2017-04-16.34228 1.000E-05 13:13:16.470 1.500E-01 0.500 F 0.239 -1.432 +11° 52' 19.70" 1.000E-01 0.500 F 0.227 0.782 o 691 3.26 No No
2017FE65 O C K 2017-04-16.35687 1.000E-05 13:13:15.170 1.500E-01 0.500 F 0.239 -0.329 +11° 52' 42.40" 1.000E-01 0.500 F 0.227 0.787 o 691 1.71 Yes No
2017FE101 O C K 2017-04-16.36126 1.000E-05 11:53:21.270 1.500E-01 0.500 F 0.046 -0.069 +11° 09' 36.50" 1.000E-01 0.500 F 0.244 -0.093 o 691 0.23 Yes No
2017FE65 O C K 2017-04-16.38379 1.000E-05 13:13:12.690 1.500E-01 0.500 F 0.239 0.388 +11° 53' 23.30" 1.000E-01 0.500 F 0.227 -0.107 o 691 0.81 Yes No
2017FE101 O C K 2017-04-16.39183 1.000E-05 11:53:19.160 1.500E-01 0.500 F 0.046 0.202 +11° 10' 41.90" 1.000E-01 0.500 F 0.244 -0.301 o 691 0.73 Yes No
2017FQ64 O C H 2017-04-17.21951 1.000E-05 11:07:44.480 1.500E-01 0.500 F 0.124 0.495 +17° 51' 38.20" 1.000E-01 0.500 F 0.259 -0.387 20.7 R 0.70 0.04 o 691 1.26 Yes Yes
2017AP20 O C H 2017-04-17.22355 1.000E-05 11:41:34.770 1.500E-01 0.500 F 0.103 -0.458 +21° 56' 02.40" 1.000E-01 0.500 F 0.270 -0.007 o 691 0.92 Yes No
2017FQ64 O C H 2017-04-17.22755 1.000E-05 11:07:43.610 1.500E-01 0.500 F 0.124 0.286 +17° 51' 40.50" 1.000E-01 0.500 F 0.259 -0.016 20.9 R 0.70 0.24 o 691 0.58 Yes Yes
2017AP20 O C H 2017-04-17.23134 1.000E-05 11:41:34.440 1.500E-01 0.500 F 0.103 0.018 +21° 55' 57.90" 1.000E-01 0.500 F 0.270 -0.089 o 691 0.18 Yes No
2017FQ64 O C H 2017-04-17.23514 1.000E-05 11:07:42.810 1.500E-01 0.500 F 0.124 0.386 +17° 51' 42.40" 1.000E-01 0.500 F 0.259 0.079 21.0 R 0.70 0.34 o 691 0.79 Yes Yes
2017AP20 O C H 2017-04-17.23878 1.000E-05 11:41:34.080 1.500E-01 0.500 F 0.103 -0.154 +21° 55' 53.60" 1.000E-01 0.500 F 0.270 -0.165 o 691 0.46 Yes No
2016VV3 O C H 2017-04-17.24838 1.000E-05 12:45:07.540 1.500E-01 0.500 F 0.039 0.141 +04° 13' 16.20" 1.000E-01 0.500 F 0.060 0.308 o 691 0.68 Yes No
2016VV3 O C H 2017-04-17.25931 1.000E-05 12:45:06.990 1.500E-01 0.500 F 0.039 0.461 +04° 13' 14.70" 1.000E-01 0.500 F 0.060 -0.470 o 691 1.32 Yes No
2016VV3 O C H 2017-04-17.27024 1.000E-05 12:45:06.410 1.500E-01 0.500 F 0.039 0.332 +04° 13' 14.50" 1.000E-01 0.500 F 0.060 0.057 o 691 0.68 Yes No
2012EY11 O C 2017-04-17.32371 1.000E-05 13:24:01.800 1.500E-01 0.500 F 0.132 -0.418 +15° 03' 49.80" 1.000E-01 0.500 F 0.163 0.544 o 691 1.38 Yes No
2012EY11 O C 2017-04-17.33509 1.000E-05 13:24:00.550 1.500E-01 0.500 F 0.132 -0.228 +15° 04' 04.30" 1.000E-01 0.500 F 0.163 0.343 o 691 0.83 Yes No
2012EY11 O C 2017-04-17.34677 1.000E-05 13:23:59.270 1.500E-01 0.500 F 0.132 -0.022 +15° 04' 19.10" 1.000E-01 0.500 F 0.163 0.093 o 691 0.19 Yes No
2016MK1 O C 2017-04-17.35078 1.000E-05 13:31:12.250 1.500E-01 0.500 F 0.258 -0.469 +01° 57' 08.70" 1.000E-01 0.500 F 0.109 -0.281 o 691 1.09 Yes No
2012HN13 O C 2017-04-17.35078 1.000E-05 13:28:41.510 1.500E-01 0.500 F 0.258 0.039 +01° 40' 38.80" 1.000E-01 0.500 F 0.109 -0.141 o 691 0.29 Yes No
2017HE O C 2017-04-17.35705 1.000E-05 13:52:01.250 1.500E-01 0.500 F 0.184 1.144 -10° 50' 31.80" 1.000E-01 0.500 F 0.155 0.585 o 691 2.70 Yes No
2012HN13 O C 2017-04-17.35987 1.000E-05 13:28:41.030 1.500E-01 0.500 F 0.258 -0.177 +01° 41' 00.40" 1.000E-01 0.500 F 0.109 0.039 o 691 0.37 Yes No
2016MK1 O C 2017-04-17.35987 1.000E-05 13:31:11.010 1.500E-01 0.500 F 0.258 -0.458 +01° 57' 16.90" 1.000E-01 0.500 F 0.109 -0.141 o 691 0.95 Yes No
2017HE O C 2017-04-17.36614 1.000E-05 13:51:57.810 1.500E-01 0.500 F 0.184 -0.301 -10° 51' 00.30" 1.000E-01 0.500 F 0.155 -0.157 o 691 0.72 Yes No
2016MK1 O C 2017-04-17.36913 1.000E-05 13:31:09.800 1.500E-01 0.500 F 0.258 0.336 +01° 57' 25.00" 1.000E-01 0.500 F 0.109 -0.248 o 691 0.86 Yes No
2012HN13 O C 2017-04-17.36913 1.000E-05 13:28:40.570 1.500E-01 0.500 F 0.258 -0.012 +01° 41' 21.90" 1.000E-01 0.500 F 0.109 -0.284 o 691 0.57 Yes No
2017HE O C 2017-04-17.37558 1.000E-05 13:51:54.320 1.500E-01 0.500 F 0.184 -0.909 -10° 51' 28.70" 1.000E-01 0.500 F 0.155 0.079 o 691 1.93 Yes No
2017GW6 O C 2017-04-17.38377 1.000E-05 14:53:40.310 1.500E-01 0.500 F 0.214 -0.095 -04° 39' 55.40" 1.000E-01 0.500 F 0.061 -0.371 o 691 0.77 Yes No
2017GW6 O C 2017-04-17.38587 1.000E-05 14:53:39.690 1.500E-01 0.500 F 0.214 0.025 -04° 39' 59.10" 1.000E-01 0.500 F 0.061 0.204 o 691 0.41 Yes No
2017GW6 O C 2017-04-17.38798 1.000E-05 14:53:39.050 1.500E-01 0.500 F 0.214 -0.110 -04° 40' 03.90" 1.000E-01 0.500 F 0.061 -0.301 o 691 0.64 Yes No
2017CS O C 2017-04-20.12160 1.000E-05 09:26:52.880 1.500E-01 0.500 F 0.126 -0.342 -11° 29' 39.40" 1.000E-01 0.500 F -0.005 0.010 18.9 V 0.70 0.39 o 691 0.68 Yes Yes
2017FP64 O C 2017-04-20.12474 1.000E-05 08:36:58.640 1.500E-01 0.500 F 0.024 -0.172 +15° 52' 40.00" 1.000E-01 0.500 F 0.044 -0.066 20.1 V 0.70 -0.03 o 691 0.37 Yes Yes
2017CS O C 2017-04-20.13137 1.000E-05 09:26:52.520 1.500E-01 0.500 F 0.126 -0.342 -11° 29' 34.00" 1.000E-01 0.500 F -0.005 0.128 18.7 V 0.70 0.19 o 691 0.73 Yes Yes
2017FP64 O C 2017-04-20.13450 1.000E-05 08:37:00.650 1.500E-01 0.500 F 0.024 -0.294 +15° 52' 48.60" 1.000E-01 0.500 F 0.044 -0.061 20.4 V 0.70 0.27 o 691 0.61 Yes Yes
2017CS O C 2017-04-20.14111 1.000E-05 09:26:52.170 1.500E-01 0.500 F 0.126 -0.221 -11° 29' 28.90" 1.000E-01 0.500 F -0.005 -0.068 18.7 V 0.70 0.19 o 691 0.46 Yes Yes
2017FP64 O C 2017-04-20.14427 1.000E-05 08:37:02.680 1.500E-01 0.500 F 0.024 -0.171 +15° 52' 57.30" 1.000E-01 0.500 F 0.044 0.050 20.2 V 0.70 0.07 o 691 0.36 Yes Yes
2017HV O C K 2017-04-20.15409 1.000E-05 10:15:52.370 1.500E-01 0.500 F 0.160 0.920 +21° 29' 22.70" 1.000E-01 0.500 F 0.196 0.197 20.0 R 0.70 -0.76 o 691 2.15 Yes Yes
2017HT O C K 2017-04-20.16416 1.000E-05 11:37:36.300 1.500E-01 0.500 F 0.263 -0.089 -01° 51' 14.30" 1.000E-01 0.500 F -0.011 -0.223 20.6 R 0.70 -0.09 o 691 0.50 Yes Yes
2017HV O C K 2017-04-20.16953 1.000E-05 10:15:58.540 1.500E-01 0.500 F 0.160 -0.018 +21° 30' 54.60" 1.000E-01 0.500 F 0.196 0.001 o 691 0.04 Yes No
2017HT O C K 2017-04-20.17992 1.000E-05 11:37:38.630 1.500E-01 0.500 F 0.263 0.622 -01° 50' 43.60" 1.000E-01 0.500 F -0.011 0.437 20.7 R 0.70 0.00 o 691 1.58 Yes Yes
2017HV O C K 2017-04-20.18567 1.000E-05 10:16:05.040 1.500E-01 0.500 F 0.160 -0.297 +21° 32' 31.10" 1.000E-01 0.500 F 0.196 0.497 o 691 1.33 Yes No
2017HT O C K 2017-04-20.19637 1.000E-05 11:37:40.920 1.500E-01 0.500 F 0.263 -0.679 -01° 50' 13.20" 1.000E-01 0.500 F -0.011 -0.478 20.4 R 0.70 -0.30 o 691 1.73 Yes Yes
2014NA64 O C K 2017-04-20.20462 1.000E-05 11:50:06.610 1.500E-01 0.500 F 0.304 0.465 -17° 10' 29.20" 1.000E-01 0.500 F 0.025 -0.232 20.4 R 0.70 -0.59 o 691 1.05 Yes Yes
2016SD O C H 2017-04-20.21035 1.000E-05 11:46:39.150 1.500E-01 0.500 F 0.236 0.715 -13° 14' 45.30" 1.000E-01 0.500 F 0.118 -1.213 19.8 R 0.70 -0.34 o 691 2.83 Yes Yes
2014NA64 O C K 2017-04-20.21598 1.000E-05 11:50:05.690 1.500E-01 0.500 F 0.304 0.283 -17° 10' 24.10" 1.000E-01 0.500 F 0.025 0.137 20.3 R 0.70 -0.69 o 691 0.63 Yes Yes
2016SD O C H 2017-04-20.22171 1.000E-05 11:46:39.030 1.500E-01 0.500 F 0.236 -0.057 -13° 14' 36.50" 1.000E-01 0.500 F 0.118 -0.257 19.9 R 0.70 -0.24 o 691 0.53 Yes Yes
2014NA64 O C K 2017-04-20.22734 1.000E-05 11:50:04.780 1.500E-01 0.500 F 0.304 0.243 -17° 10' 19.40" 1.000E-01 0.500 F 0.025 0.091 20.7 R 0.70 -0.29 o 691 0.52 Yes Yes
2016SD O C H 2017-04-20.23307 1.000E-05 11:46:39.000 1.500E-01 0.500 F 0.236 0.481 -13° 14' 28.10" 1.000E-01 0.500 F 0.118 0.292 20.0 R 0.70 -0.14 o 691 1.13 Yes Yes
2017FQ64 O C 2017-04-20.23704 1.000E-05 11:02:57.130 1.500E-01 0.500 F 0.138 -0.186 +18° 01' 22.80" 1.000E-01 0.500 F 0.190 0.102 21.2 V 0.70 0.13 o 691 0.43 Yes Yes
2017DC109 O C H 2017-04-20.24367 1.000E-05 12:27:32.980 1.500E-01 0.500 F 0.258 0.190 -15° 10' 28.60" 1.000E-01 0.500 F -0.013 -0.021 20.3 R 0.70 0.00 o 691 0.39 Yes Yes
2017HJ1 O C K 2017-04-20.24607 1.000E-05 12:34:08.750 1.500E-01 0.500 F 0.418 0.034 -09° 39' 40.20" 1.000E-01 0.500 F 0.172 0.169 20.3 R 0.70 -0.31 o 691 0.35 Yes Yes
2017FQ64 O C 2017-04-20.25239 1.000E-05 11:02:55.610 1.500E-01 0.500 F 0.138 -0.168 +18° 01' 24.60" 1.000E-01 0.500 F 0.190 -0.106 20.8 V 0.70 -0.27 o 691 0.40 Yes Yes
2017DC109 O C H 2017-04-20.25886 1.000E-05 12:27:36.290 1.500E-01 0.500 F 0.258 0.629 -15° 10' 28.60" 1.000E-01 0.500 F -0.013 -0.121 o 691 1.32 Yes No
2017HJ1 O C K 2017-04-20.26127 1.000E-05 12:34:05.330 1.500E-01 0.500 F 0.394 -0.140 -09° 40' 12.00" 1.000E-01 0.500 F 0.139 0.077 o 691 0.32 Yes No
2017FQ64 O C 2017-04-20.26744 1.000E-05 11:02:54.120 1.500E-01 0.500 F 0.121 -0.200 +18° 01' 27.00" 1.000E-01 0.500 F 0.331 0.241 21.1 V 0.70 0.03 o 691 0.63 Yes Yes
2017DC109 O C H 2017-04-20.27377 1.000E-05 12:27:39.540 1.500E-01 0.500 F 0.258 1.050 -15° 10' 28.60" 1.000E-01 0.500 F -0.013 -0.322 20.8 R 0.70 0.50 o 691 2.26 Yes Yes
2017HJ1 O C K 2017-04-20.27618 1.000E-05 12:34:02.000 1.500E-01 0.500 F 0.394 0.041 -09° 40' 43.10" 1.000E-01 0.500 F 0.139 0.028 o 691 0.10 Yes No
2017HS O C K 2017-04-20.29149 1.000E-05 12:46:26.740 1.500E-01 0.500 F 0.186 0.131 +05° 30' 35.40" 1.000E-01 0.500 F 0.120 0.232 o 691 0.54 Yes No
2017HS O C K 2017-04-20.30620 1.000E-05 12:46:25.240 1.500E-01 0.500 F 0.186 -0.493 +05° 31' 00.50" 1.000E-01 0.500 F 0.120 0.569 o 691 1.52 Yes No
2017HS O C K 2017-04-20.32092 1.000E-05 12:46:23.850 1.500E-01 0.500 F 0.186 0.505 +05° 31' 25.60" 1.000E-01 0.500 F 0.120 0.898 o 691 2.08 Yes No
2010SL13 O C 2017-04-20.32984 1.000E-05 13:58:58.800 1.500E-01 0.500 F 0.267 0.038 -10° 24' 42.70" 1.000E-01 0.500 F 0.119 -0.262 21.0 V 0.70 0.37 o 691 0.53 Yes Yes
2017FE65 O C K 2017-04-20.33336 1.000E-05 13:07:36.150 1.500E-01 0.500 F 0.408 -0.713 +13° 28' 11.70" 1.000E-01 0.500 F 0.323 0.513 20.6 R 0.70 -0.71 o 691 1.76 Yes Yes
2010SL13 O C 2017-04-20.34706 1.000E-05 13:58:57.380 1.500E-01 0.500 F 0.267 -0.205 -10° 24' 33.10" 1.000E-01 0.500 F 0.119 -0.222 20.6 V 0.70 -0.03 o 691 0.61 Yes Yes
2017FE65 O C K 2017-04-20.35053 1.000E-05 13:07:34.700 1.500E-01 0.500 F 0.408 -0.534 +13° 28' 34.10" 1.000E-01 0.500 F 0.323 0.337 20.7 R 0.70 -0.61 o 691 1.27 Yes Yes
2010SL13 O C 2017-04-20.36416 1.000E-05 13:58:55.950 1.500E-01 0.500 F 0.267 -0.763 -10° 24' 23.50" 1.000E-01 0.500 F 0.119 -0.130 20.9 V 0.70 0.27 o 691 1.57 Yes Yes
2017FE65 O C K 2017-04-20.36761 1.000E-05 13:07:33.310 1.500E-01 0.500 F 0.408 0.341 +13° 28' 56.00" 1.000E-01 0.500 F 0.323 -0.176 20.3 R 0.70 -1.01 o 691 0.77 Yes Yes
2017HG2 O C K 2017-04-20.41406 1.000E-05 16:32:17.560 1.500E-01 0.500 F 0.155 0.057 +05° 55' 10.40" 1.000E-01 0.500 F 0.211 -0.301 o 691 0.62 Yes No
2017HK1 O C K 2017-04-20.41936 1.000E-05 16:37:30.670 1.500E-01 0.500 F 0.269 -0.219 +08° 37' 33.10" 1.000E-01 0.500 F 0.051 0.143 19.3 R 0.70 -0.56 o 691 0.53 Yes Yes
2017HG2 O C K 2017-04-20.42344 1.000E-05 16:32:17.090 1.500E-01 0.500 F 0.155 -0.284 +05° 55' 18.40" 1.000E-01 0.500 F 0.211 0.063 20.9 R 0.70 -0.19 o 691 0.58 Yes Yes
2017HK1 O C K 2017-04-20.42875 1.000E-05 16:37:27.570 1.500E-01 0.500 F 0.269 -0.352 +08° 38' 06.30" 1.000E-01 0.500 F 0.051 0.112 19.1 R 0.70 -0.76 o 691 0.74 Yes Yes
2017HG2 O C K 2017-04-20.43283 1.000E-05 16:32:16.650 1.500E-01 0.500 F 0.155 -0.167 +05° 55' 25.80" 1.000E-01 0.500 F 0.211 -0.169 21.0 R 0.70 -0.09 o 691 0.48 Yes Yes
2017HK1 O C K 2017-04-20.43813 1.000E-05 16:37:24.530 1.500E-01 0.500 F 0.269 0.363 +08° 38' 39.30" 1.000E-01 0.500 F 0.051 -0.012 19.2 R 0.70 -0.66 o 691 0.73 Yes Yes
2017HG1 O C K 2017-04-21.18735 1.000E-05 11:21:32.220 1.500E-01 0.500 F 0.166 0.217 +14° 56' 55.20" 1.000E-01 0.500 F 0.293 0.310 18.9 R 0.70 -1.01 o 691 0.79 Yes Yes
2017HH2 O C K 2017-04-21.19768 1.000E-05 11:38:28.880 1.500E-01 0.500 F 0.059 0.483 +11° 59' 27.20" 1.000E-01 0.500 F 0.250 0.043 18.3 R 0.70 -0.79 o 691 0.98 Yes Yes
2017HG1 O C K 2017-04-21.20028 1.000E-05 11:21:26.650 1.500E-01 0.500 F 0.166 -0.434 +15° 00' 47.80" 1.000E-01 0.500 F 0.293 1.262 19.0 R 0.70 -0.91 o 691 2.76 Yes Yes
2017HJ1 O C K 2017-04-21.20612 1.000E-05 12:30:40.360 1.500E-01 0.500 F 0.124 0.197 -10° 13' 25.00" 1.000E-01 0.500 F 0.107 -0.134 20.4 R 0.70 -0.21 o 691 0.48 Yes Yes
2017HH2 O C K 2017-04-21.21063 1.000E-05 11:38:38.460 1.500E-01 0.500 F 0.059 0.365 +12° 01' 00.20" 1.000E-01 0.500 F 0.250 -0.224 18.2 R 0.70 -0.89 o 691 0.86 Yes Yes
2017HG1 O C K 2017-04-21.21323 1.000E-05 11:21:21.190 1.500E-01 0.500 F 0.166 0.298 +15° 04' 35.20" 1.000E-01 0.500 F 0.293 -1.435 19.4 R 0.70 -0.52 o 691 3.04 Yes Yes
2017HJ1 O C K 2017-04-21.21933 1.000E-05 12:30:37.220 1.500E-01 0.500 F 0.124 -1.630 -10° 13' 53.00" 1.000E-01 0.500 F 0.107 0.134 20.8 R 0.70 0.19 o 691 3.24 No Yes
2017HH2 O C K 2017-04-21.22402 1.000E-05 11:38:48.350 1.500E-01 0.500 F 0.059 0.096 +12° 02' 36.20" 1.000E-01 0.500 F 0.250 -0.425 18.7 R 0.70 -0.39 o 691 0.88 Yes Yes
2017HJ2 O C K 2017-04-21.22883 1.000E-05 12:18:21.090 1.500E-01 0.500 F 0.091 -1.317 -04° 43' 25.50" 1.000E-01 0.500 F 0.155 1.346 o 691 3.73 No No
2017HJ2 O C K 2017-04-21.23415 1.000E-05 12:18:23.500 1.500E-01 0.500 F 0.091 -1.159 -04° 44' 15.70" 1.000E-01 0.500 F 0.155 1.625 o 691 3.96 No No
2017HJ2 O C K 2017-04-21.23949 1.000E-05 12:18:25.900 1.500E-01 0.500 F 0.091 -1.254 -04° 45' 06.30" 1.000E-01 0.500 F 0.155 1.643 o 691 4.10 No No
2017FE128 O C 2017-04-21.29175 1.000E-05 12:13:53.110 1.500E-01 0.500 F 0.343 -0.760 -00° 08' 15.50" 1.000E-01 0.500 F 0.218 -0.215 20.6 V 0.70 -0.04 o 691 1.59 Yes Yes
2017AP20 O C H 2017-04-21.29692 1.000E-05 11:38:55.940 1.500E-01 0.500 F 0.055 0.003 +21° 16' 44.30" 1.000E-01 0.500 F 0.295 -0.444 21.0 R 0.70 0.06 o 691 0.89 Yes Yes
2017DC109 O C H 2017-04-21.30128 1.000E-05 12:31:40.040 1.500E-01 0.500 F 0.354 -1.751 -15° 10' 09.60" 1.000E-01 0.500 F 0.105 -0.072 20.9 R 0.70 0.60 o 691 3.41 No Yes
2017FE128 O C 2017-04-21.30346 1.000E-05 12:13:48.900 1.500E-01 0.500 F 0.343 0.430 -00° 08' 57.30" 1.000E-01 0.500 F 0.218 0.554 20.2 V 0.70 -0.44 o 691 1.41 Yes Yes
2017AP20 O C H 2017-04-21.30852 1.000E-05 11:38:55.510 1.500E-01 0.500 F 0.055 -0.195 +21° 16' 38.30" 1.000E-01 0.500 F 0.295 0.468 20.6 R 0.70 -0.34 o 691 1.02 Yes Yes
2017DC109 O C H 2017-04-21.31278 1.000E-05 12:31:42.650 1.500E-01 0.500 F 0.354 -0.291 -15° 10' 09.00" 1.000E-01 0.500 F 0.105 -0.080 20.6 R 0.70 0.30 o 691 0.62 Yes Yes
2017FE128 O C 2017-04-21.31496 1.000E-05 12:13:44.650 1.500E-01 0.500 F 0.343 -0.184 -00° 09' 39.50" 1.000E-01 0.500 F 0.218 0.175 20.3 V 0.70 -0.34 o 691 0.51 Yes Yes
2017AP20 O C H 2017-04-21.31993 1.000E-05 11:38:55.110 1.500E-01 0.500 F 0.055 -0.090 +21° 16' 30.30" 1.000E-01 0.500 F 0.295 -0.724 20.9 R 0.70 -0.04 o 691 1.47 Yes Yes
2017HK1 O C K 2017-04-21.41202 1.000E-05 16:32:58.630 1.500E-01 0.500 F 0.166 -0.255 +09° 36' 41.60" 1.000E-01 0.500 F 0.155 0.095 19.1 R 0.70 -0.70 o 691 0.55 Yes Yes
2017HG2 O C H 2017-04-21.41639 1.000E-05 16:31:37.620 1.500E-01 0.500 F 0.155 0.637 +06° 08' 28.60" 1.000E-01 0.500 F 0.211 -0.496 21.0 R 0.70 -0.09 o 691 1.62 Yes Yes
2017HK1 O C K 2017-04-21.41907 1.000E-05 16:32:56.210 1.500E-01 0.500 F 0.166 0.117 +09° 37' 07.10" 1.000E-01 0.500 F 0.155 0.113 19.1 R 0.70 -0.70 o 691 0.33 Yes Yes
2017HG2 O C H 2017-04-21.42345 1.000E-05 16:31:37.200 1.500E-01 0.500 F 0.155 -0.248 +06° 08' 35.10" 1.000E-01 0.500 F 0.211 0.505 o 691 1.13 Yes No
2017HK1 O C K 2017-04-21.42613 1.000E-05 16:32:53.740 1.500E-01 0.500 F 0.166 -0.187 +09° 37' 32.60" 1.000E-01 0.500 F 0.155 0.142 o 691 0.47 Yes No
2016XD1 O C K 2017-04-22.12823 1.000E-05 08:02:52.980 1.500E-01 0.500 F 0.007 0.927 -00° 51' 06.40" 1.000E-01 0.500 F 0.026 -0.171 o 691 1.91 Yes No
2016XH2 O C 2017-04-22.13369 1.000E-05 09:23:53.550 1.500E-01 0.612 F 0.005 -0.028 +13° 35' 18.50" 1.000E-01 0.612 F 0.262 -0.055 20.0 V 0.70 -0.07 o 691 0.10 Yes Yes
2016XD1 O C K 2017-04-22.13614 1.000E-05 08:02:54.350 1.500E-01 0.500 F 0.007 0.686 -00° 51' 11.30" 1.000E-01 0.500 F 0.026 -0.042 o 691 1.39 Yes No
2016XH2 O C 2017-04-22.14145 1.000E-05 09:23:56.770 1.500E-01 0.612 F 0.005 0.257 +13° 35' 05.00" 1.000E-01 0.612 F 0.262 -0.118 19.9 V 0.70 -0.17 o 691 0.46 Yes Yes
2016XD1 O C K 2017-04-22.14386 1.000E-05 08:02:55.700 1.500E-01 0.500 F 0.007 0.635 -00° 51' 16.30" 1.000E-01 0.500 F 0.026 -0.134 o 691 1.31 Yes No
2016XH2 O C 2017-04-22.14915 1.000E-05 09:23:59.920 1.500E-01 0.612 F 0.005 -0.129 +13° 34' 51.70" 1.000E-01 0.612 F 0.262 -0.062 20.0 V 0.70 -0.07 o 691 0.23 Yes Yes
2001FX9 O C 2017-04-22.15122 1.000E-05 08:44:41.020 1.500E-01 0.500 F -0.074 -0.898 +16° 53' 26.20" 1.000E-01 0.500 F 0.202 0.335 20.6 V 0.70 -0.37 o 691 1.92 Yes Yes
2017FP64 O C H 2017-04-22.15122 1.000E-05 08:44:11.360 1.500E-01 0.500 F -0.021 0.233 +16° 21' 30.90" 1.000E-01 0.500 F 0.091 -0.415 20.7 R 0.70 0.95 o 691 0.96 Yes Yes
2016XH2 O C 2017-04-22.15736 1.000E-05 09:24:03.320 1.500E-01 0.612 F 0.115 -0.065 +13° 34' 37.70" 1.000E-01 0.612 F 0.203 0.263 20.0 V 0.70 -0.07 o 691 0.44 Yes Yes
2001FX9 O C 2017-04-22.15935 1.000E-05 08:44:42.370 1.500E-01 0.500 F -0.074 -1.377 +16° 53' 23.10" 1.000E-01 0.500 F 0.202 0.802 20.6 V 0.70 -0.37 o 691 3.18 No Yes
2017FP64 O C H 2017-04-22.15935 1.000E-05 08:44:13.070 1.500E-01 0.500 F -0.021 0.117 +16° 21' 38.10" 1.000E-01 0.500 F 0.091 0.159 20.7 R 0.70 0.95 o 691 0.40 Yes Yes
2016XH2 O C 2017-04-22.16541 1.000E-05 09:24:06.580 1.500E-01 0.612 F 0.115 -0.991 +13° 34' 23.40" 1.000E-01 0.612 F 0.203 -0.025 19.8 V 0.70 -0.27 o 691 1.62 Yes Yes
2001FX9 O C 2017-04-22.16741 1.000E-05 08:44:43.790 1.500E-01 0.500 F -0.074 -0.688 +16° 53' 18.90" 1.000E-01 0.500 F 0.202 0.145 21.1 V 0.70 0.13 o 691 1.41 Yes Yes
2017FP64 O C H 2017-04-22.16741 1.000E-05 08:44:14.720 1.500E-01 0.500 F -0.021 -0.663 +16° 21' 44.80" 1.000E-01 0.500 F 0.091 0.298 20.4 R 0.70 0.65 o 691 1.47 Yes Yes
2016XH2 O C 2017-04-22.17348 1.000E-05 09:24:09.990 1.500E-01 0.612 F 0.115 0.123 +13° 34' 09.20" 1.000E-01 0.612 F 0.203 -0.154 19.9 V 0.70 -0.17 o 691 0.32 Yes Yes
2017GK4 O C K 2017-04-22.17539 1.000E-05 10:05:19.470 1.500E-01 0.500 F 0.104 -0.499 +28° 39' 00.40" 1.000E-01 0.500 F 0.297 0.528 18.4 R 0.70 -0.01 o 691 1.46 Yes Yes
2017GK4 O C K 2017-04-22.18027 1.000E-05 10:05:17.160 1.500E-01 0.500 F 0.104 -0.475 +28° 40' 10.80" 1.000E-01 0.500 F 0.297 0.430 o 691 1.29 Yes No
2017HH2 O C K 2017-04-22.18528 1.000E-05 11:51:05.930 1.500E-01 0.500 F 0.166 0.417 +13° 53' 07.40" 1.000E-01 0.500 F 0.219 -0.037 19.0 R 0.70 -0.14 o 691 0.85 Yes Yes
2017GV6 O C K 2017-04-22.18839 1.000E-05 12:43:43.460 1.500E-01 0.500 F 0.258 -0.748 -13° 28' 39.20" 1.000E-01 0.500 F 0.097 0.082 o 691 1.59 Yes No
2017HH2 O C K 2017-04-22.19165 1.000E-05 11:51:10.450 1.500E-01 0.500 F 0.166 0.088 +13° 53' 49.40" 1.000E-01 0.500 F 0.219 -0.298 18.8 R 0.70 -0.34 o 691 0.63 Yes Yes
2017GV6 O C K 2017-04-22.19473 1.000E-05 12:43:40.320 1.500E-01 0.500 F 0.258 -0.440 -13° 29' 17.20" 1.000E-01 0.500 F 0.097 0.049 19.6 R 0.70 -0.09 o 691 0.94 Yes Yes
2017HH2 O C K 2017-04-22.19806 1.000E-05 11:51:15.010 1.500E-01 0.500 F 0.166 -0.031 +13° 54' 31.90" 1.000E-01 0.500 F 0.219 -0.266 18.9 R 0.70 -0.24 o 691 0.54 Yes Yes
2017GV6 O C K 2017-04-22.20113 1.000E-05 12:43:37.200 1.500E-01 0.500 F 0.258 0.611 -13° 29' 54.40" 1.000E-01 0.500 F 0.097 1.143 20.2 R 0.70 0.51 o 691 2.77 Yes Yes
2016VV3 O C K 2017-04-22.20514 1.000E-05 12:41:30.340 1.500E-01 0.500 F 0.185 -0.425 +04° 05' 15.20" 1.000E-01 0.500 F 0.071 -0.027 21.4 R 0.70 0.06 o 691 0.85 Yes Yes
2016VV3 O C K 2017-04-22.21835 1.000E-05 12:41:29.810 1.500E-01 0.500 F 0.185 -0.091 +04° 05' 13.90" 1.000E-01 0.500 F 0.071 0.337 21.9 R 0.70 0.56 o 691 0.70 Yes Yes
2016VV3 O C K 2017-04-22.23154 1.000E-05 12:41:29.250 1.500E-01 0.500 F 0.185 -0.212 +04° 05' 11.70" 1.000E-01 0.500 F 0.071 -0.197 o 691 0.58 Yes No
2017FE65 O C K 2017-04-22.24494 1.000E-05 13:05:06.730 1.500E-01 0.500 F 0.330 0.056 +14° 08' 29.40" 1.000E-01 0.500 F 0.291 -0.190 o 691 0.40 Yes No
2017FE65 O C K 2017-04-22.26145 1.000E-05 13:05:05.370 1.500E-01 0.500 F 0.330 -0.345 +14° 08' 50.20" 1.000E-01 0.500 F 0.291 0.629 o 691 1.44 Yes No
2017FE65 O C K 2017-04-22.27796 1.000E-05 13:05:04.020 1.500E-01 0.500 F 0.330 -0.605 +14° 09' 09.80" 1.000E-01 0.500 F 0.291 0.293 o 691 1.35 Yes No
2017HG2 O C H 2017-04-22.30471 1.000E-05 16:31:00.280 1.500E-01 0.500 F 0.143 -0.072 +06° 19' 46.30" 1.000E-01 0.500 F 0.229 -0.327 21.4 R 0.70 0.31 o 691 0.67 Yes Yes
2017HG2 O C H 2017-04-22.33727 1.000E-05 16:30:58.550 1.500E-01 0.500 F 0.143 -0.395 +06° 20' 11.30" 1.000E-01 0.500 F 0.229 0.072 21.2 R 0.70 0.11 o 691 0.81 Yes Yes
2017HL1 O C K 2017-04-22.37198 1.000E-05 13:59:27.730 1.500E-01 0.500 F 0.527 0.163 -23° 41' 09.60" 1.000E-01 0.500 F 0.276 0.177 19.8 R 0.70 0.06 o 691 0.52 Yes Yes
2017HL1 O C K 2017-04-22.37469 1.000E-05 13:59:26.900 1.500E-01 0.500 F 0.527 -0.347 -23° 41' 42.00" 1.000E-01 0.500 F 0.276 0.035 19.6 R 0.70 -0.14 o 691 0.72 Yes Yes
2017HL1 O C K 2017-04-22.37741 1.000E-05 13:59:26.130 1.500E-01 0.500 F 0.527 -0.025 -23° 42' 13.90" 1.000E-01 0.500 F 0.276 0.466 19.8 R 0.70 0.06 o 691 1.01 Yes Yes
2017HG O C K 2017-04-22.41336 1.000E-05 13:18:47.750 1.500E-01 0.500 F 0.173 0.079 +07° 25' 42.70" 1.000E-01 0.500 F 0.145 -0.252 20.1 R 0.70 -0.90 o 691 0.62 Yes Yes
2017HG O C K 2017-04-22.42048 1.000E-05 13:18:48.620 1.500E-01 0.500 F 0.173 -0.032 +07° 25' 20.10" 1.000E-01 0.500 F 0.145 0.344 20.3 R 0.70 -0.70 o 691 0.81 Yes Yes
2017HG O C K 2017-04-22.42761 1.000E-05 13:18:49.500 1.500E-01 0.500 F 0.173 -0.169 +07° 24' 56.50" 1.000E-01 0.500 F 0.145 -0.043 20.4 R 0.70 -0.60 o 691 0.41 Yes Yes
2017FN128 O C K 2017-04-23.12843 1.000E-05 08:58:49.780 1.500E-01 0.500 F 0.026 0.542 +24° 09' 43.50" 1.000E-01 0.500 F 0.323 -1.171 21.0 R 0.70 -0.61 o 691 2.60 Yes Yes
2017FP64 O C H 2017-04-23.13754 1.000E-05 08:47:45.080 1.500E-01 0.500 F -0.002 -0.278 +16° 34' 47.80" 1.000E-01 0.500 F 0.159 0.076 o 691 0.58 Yes No
2001FX9 O C 2017-04-23.13754 1.000E-05 08:47:31.820 1.500E-01 0.500 F -0.074 -0.109 +16° 46' 12.70" 1.000E-01 0.500 F 0.202 -0.421 20.8 V 0.70 -0.19 o 691 0.87 Yes Yes
2017FN128 O C K 2017-04-23.14451 1.000E-05 08:58:50.410 1.500E-01 0.500 F 0.026 -0.191 +24° 09' 08.10" 1.000E-01 0.500 F 0.323 1.024 21.7 R 0.70 0.09 o 691 2.10 Yes Yes
2017FP64 O C H 2017-04-23.15360 1.000E-05 08:47:48.500 1.500E-01 0.500 F -0.002 -0.332 +16° 35' 00.50" 1.000E-01 0.500 F 0.159 0.175 20.8 R 0.70 1.04 o 691 0.76 Yes Yes
2001FX9 O C 2017-04-23.15360 1.000E-05 08:47:34.520 1.500E-01 0.500 F -0.074 -0.426 +16° 46' 06.00" 1.000E-01 0.500 F 0.202 0.102 21.3 V 0.70 0.31 o 691 0.88 Yes Yes
2017FN128 O C K 2017-04-23.16055 1.000E-05 08:58:51.100 1.500E-01 0.500 F 0.026 -0.102 +24° 08' 29.00" 1.000E-01 0.500 F 0.323 -0.565 21.3 R 0.70 -0.31 o 691 1.16 Yes Yes
2017FP64 O C H 2017-04-23.16965 1.000E-05 08:47:51.940 1.500E-01 0.500 F -0.002 -0.118 +16° 35' 12.70" 1.000E-01 0.500 F 0.159 -0.181 20.1 R 0.70 0.34 o 691 0.44 Yes Yes
2001FX9 O C 2017-04-23.16965 1.000E-05 08:47:37.210 1.500E-01 0.500 F -0.074 -0.890 +16° 45' 58.50" 1.000E-01 0.500 F 0.202 -0.155 20.7 V 0.70 -0.29 o 691 1.81 Yes Yes
2016QC84 O C K 2017-04-23.17747 1.000E-05 10:39:56.960 1.500E-01 0.500 F 0.167 0.067 -03° 03' 39.50" 1.000E-01 0.500 F 0.169 0.224 21.6 R 0.70 0.16 o 691 0.47 Yes Yes
2016LE9 O C K 2017-04-23.18841 1.000E-05 11:12:26.180 1.500E-01 0.500 F 0.166 0.021 -07° 00' 48.20" 1.000E-01 0.500 F 0.038 0.000 o 691 0.04 Yes No
2014NA64 O C K 2017-04-23.19936 1.000E-05 11:46:28.810 1.500E-01 0.500 F 0.265 -0.462 -16° 49' 07.30" 1.000E-01 0.500 F 0.039 0.028 20.5 R 0.70 -0.52 o 691 0.93 Yes Yes
2016QC84 O C K 2017-04-23.20711 1.000E-05 10:39:57.190 1.500E-01 0.500 F 0.167 -0.043 -03° 03' 55.00" 1.000E-01 0.500 F 0.169 -0.165 21.3 R 0.70 -0.14 o 691 0.34 Yes Yes
2016LE9 O C K 2017-04-23.21805 1.000E-05 11:12:25.340 1.500E-01 0.500 F 0.166 0.075 -07° 00' 28.30" 1.000E-01 0.500 F 0.038 0.828 o 691 1.67 Yes No
2016QC84 O C K 2017-04-23.23681 1.000E-05 10:39:57.430 1.500E-01 0.500 F 0.167 -0.129 -03° 04' 09.70" 1.000E-01 0.500 F 0.169 0.253 21.6 R 0.70 0.15 o 691 0.57 Yes Yes
2016LE9 O C K 2017-04-23.24775 1.000E-05 11:12:24.520 1.500E-01 0.500 F 0.166 0.401 -07° 00' 10.10" 1.000E-01 0.500 F 0.038 -0.086 21.7 R 0.70 0.16 o 691 0.82 Yes Yes
2014NA64 O C K 2017-04-23.25878 1.000E-05 11:46:24.460 1.500E-01 0.500 F 0.265 -0.071 -16° 48' 41.00" 1.000E-01 0.500 F 0.039 0.282 o 691 0.59 Yes No
2016SD O C H 2017-04-23.26606 1.000E-05 11:46:42.900 1.500E-01 0.500 F 0.331 -0.108 -12° 41' 19.80" 1.000E-01 0.500 F 0.048 -0.026 20.3 R 0.70 -0.02 o 691 0.22 Yes Yes
2017EV2 O C K 2017-04-23.26936 1.000E-05 11:51:20.330 1.500E-01 0.500 F 0.225 -0.976 -15° 27' 44.90" 1.000E-01 0.500 F 0.024 -0.324 21.7 R 0.70 0.31 o 691 2.07 Yes Yes
2017FE128 O C 2017-04-23.27473 1.000E-05 12:01:57.010 1.500E-01 0.500 F 0.169 -0.163 -02° 12' 24.90" 1.000E-01 0.500 F 0.207 -0.425 20.2 V 0.70 -0.45 o 691 0.92 Yes Yes
2016SD O C H 2017-04-23.27743 1.000E-05 11:46:42.920 1.500E-01 0.500 F 0.331 0.026 -12° 41' 12.40" 1.000E-01 0.500 F 0.048 0.264 20.3 R 0.70 -0.02 o 691 0.53 Yes Yes
2017EV2 O C K 2017-04-23.28073 1.000E-05 11:51:18.770 1.500E-01 0.500 F 0.225 0.226 -15° 27' 37.30" 1.000E-01 0.500 F 0.024 0.314 21.3 R 0.70 -0.09 o 691 0.78 Yes Yes
2017FE128 O C 2017-04-23.28603 1.000E-05 12:01:52.700 1.500E-01 0.500 F 0.169 -0.399 -02° 13' 08.50" 1.000E-01 0.500 F 0.207 -0.293 20.2 V 0.70 -0.46 o 691 1.00 Yes Yes
2016SD O C H 2017-04-23.28873 1.000E-05 11:46:42.920 1.500E-01 0.500 F 0.331 -0.154 -12° 41' 05.70" 1.000E-01 0.500 F 0.048 -0.109 20.0 R 0.70 -0.32 o 691 0.38 Yes Yes
2017EV2 O C K 2017-04-23.29203 1.000E-05 11:51:17.090 1.500E-01 0.500 F 0.225 -0.490 -15° 27' 30.60" 1.000E-01 0.500 F 0.024 0.079 21.3 R 0.70 -0.09 o 691 1.00 Yes Yes
2017FE128 O C 2017-04-23.29735 1.000E-05 12:01:48.390 1.500E-01 0.500 F 0.169 -0.570 -02° 13' 52.10" 1.000E-01 0.500 F 0.207 -0.076 20.4 V 0.70 -0.26 o 691 1.16 Yes Yes
2016VV3 O C K 2017-04-23.30148 1.000E-05 12:40:48.880 1.500E-01 0.500 F 0.185 0.248 +04° 02' 49.90" 1.000E-01 0.500 F 0.071 0.668 21.6 R 0.70 0.21 o 691 1.43 Yes Yes
2017FS101 O C 2017-04-23.31174 1.000E-05 13:15:05.640 1.500E-01 0.500 F 0.114 -0.142 -06° 32' 21.50" 1.000E-01 0.500 F 0.058 -0.182 19.6 V 0.70 0.19 o 691 0.46 Yes Yes
2016VV3 O C K 2017-04-23.31453 1.000E-05 12:40:48.360 1.500E-01 0.500 F 0.185 0.160 +04° 02' 47.60" 1.000E-01 0.500 F 0.071 0.204 21.9 R 0.70 0.51 o 691 0.52 Yes Yes
2017FS101 O C 2017-04-23.32472 1.000E-05 13:15:12.050 1.500E-01 0.500 F 0.114 -0.034 -06° 33' 05.70" 1.000E-01 0.500 F 0.058 -0.066 19.7 V 0.70 0.29 o 691 0.15 Yes Yes
2016VV3 O C K 2017-04-23.32749 1.000E-05 12:40:47.840 1.500E-01 0.500 F 0.185 -0.006 +04° 02' 46.30" 1.000E-01 0.500 F 0.071 0.733 21.7 R 0.70 0.30 o 691 1.47 Yes Yes
2017FS101 O C 2017-04-23.33763 1.000E-05 13:15:18.440 1.500E-01 0.500 F 0.114 0.066 -06° 33' 50.00" 1.000E-01 0.500 F 0.058 -0.352 19.6 V 0.70 0.19 o 691 0.72 Yes Yes
2017HH O C 2017-04-23.33972 1.000E-05 13:09:26.000 1.500E-01 0.500 F 0.257 0.063 -08° 03' 49.10" 1.000E-01 0.500 F 0.079 -0.053 19.8 V 0.70 0.16 o 691 0.16 Yes Yes
2017HE O C K 2017-04-23.34249 1.000E-05 13:35:51.740 1.500E-01 0.500 F 0.164 0.021 -13° 38' 36.90" 1.000E-01 0.500 F 0.021 -0.149 20.5 R 0.70 -0.77 o 691 0.34 Yes Yes
2000AF205 O C 2017-04-23.35084 1.000E-05 13:48:06.350 1.500E-01 0.500 F 0.285 -0.362 -13° 21' 25.60" 1.000E-01 0.500 F 0.212 -0.055 19.3 V 0.70 0.46 o 691 0.74 Yes Yes
2017HH O C 2017-04-23.35312 1.000E-05 13:09:23.960 1.500E-01 0.500 F 0.257 0.047 -08° 03' 53.10" 1.000E-01 0.500 F 0.079 -0.320 19.4 V 0.70 -0.24 o 691 0.65 Yes Yes
2017HE O C K 2017-04-23.35590 1.000E-05 13:35:50.030 1.500E-01 0.500 F 0.164 0.186 -13° 38' 48.00" 1.000E-01 0.500 F 0.021 -0.023 20.1 R 0.70 -1.18 o 691 0.43 Yes Yes
2000AF205 O C 2017-04-23.36425 1.000E-05 13:48:03.260 1.500E-01 0.500 F 0.285 -0.152 -13° 21' 01.30" 1.000E-01 0.500 F 0.212 0.078 19.5 V 0.70 0.66 o 691 0.34 Yes Yes
2017HH O C 2017-04-23.36651 1.000E-05 13:09:22.010 1.500E-01 0.500 F 0.257 1.306 -08° 03' 56.00" 1.000E-01 0.500 F 0.079 0.500 19.2 V 0.70 -0.44 o 691 2.81 Yes Yes
2017HE O C K 2017-04-23.36929 1.000E-05 13:35:48.330 1.500E-01 0.500 F 0.164 0.112 -13° 38' 58.90" 1.000E-01 0.500 F 0.021 0.105 20.9 R 0.70 -0.38 o 691 0.36 Yes Yes
2000AF205 O C 2017-04-23.37764 1.000E-05 13:48:00.160 1.500E-01 0.500 F 0.285 -0.257 -13° 20' 37.10" 1.000E-01 0.500 F 0.212 0.070 19.3 V 0.70 0.46 o 691 0.54 Yes Yes
2000GW127 O C K 2017-04-23.44294 1.000E-05 16:15:28.270 1.500E-01 0.500 F 0.281 0.174 -08° 27' 07.30" 1.000E-01 0.500 F 0.210 -0.360 20.8 R 0.70 -0.56 o 691 0.82 Yes Yes
2016WO1 O C H 2017-04-23.44924 1.000E-05 16:34:08.620 1.500E-01 0.500 F 0.210 -0.136 +06° 40' 56.80" 1.000E-01 0.500 F 0.220 0.032 18.3 R 0.70 -0.06 o 691 0.28 Yes Yes
2000GW127 O C K 2017-04-23.45525 1.000E-05 16:15:26.810 1.500E-01 0.500 F 0.281 -0.357 -08° 27' 02.60" 1.000E-01 0.500 F 0.210 -0.114 21.2 R 0.70 -0.15 o 691 0.76 Yes Yes
2016WO1 O C H 2017-04-23.46150 1.000E-05 16:34:05.740 1.500E-01 0.500 F 0.210 -0.106 +06° 40' 06.80" 1.000E-01 0.500 F 0.220 0.156 18.3 R 0.70 -0.06 o 691 0.38 Yes Yes
2016WO1 O C H 2017-04-23.47362 1.000E-05 16:34:02.900 1.500E-01 0.500 F 0.210 -0.030 +06° 39' 17.20" 1.000E-01 0.500 F 0.220 0.115 18.6 R 0.70 0.24 o 691 0.24 Yes Yes
2017FP64 O C 2017-04-24.13894 1.000E-05 08:51:24.020 1.500E-01 0.500 F 0.028 0.593 +16° 47' 43.80" 1.000E-01 0.500 F 0.208 -0.476 20.8 V 0.70 0.63 o 691 1.53 Yes Yes
2016XH2 O C 2017-04-24.14120 1.000E-05 09:38:08.930 1.500E-01 0.500 F 0.005 -0.458 +12° 36' 07.20" 1.000E-01 0.500 F 0.261 -0.010 20.2 V 0.70 0.14 o 691 0.92 Yes Yes
2017FP64 O C 2017-04-24.14796 1.000E-05 08:51:25.940 1.500E-01 0.500 F 0.028 0.307 +16° 47' 51.10" 1.000E-01 0.500 F 0.208 0.037 21.3 V 0.70 1.13 o 691 0.63 Yes Yes
2016XH2 O C 2017-04-24.15008 1.000E-05 09:38:12.560 1.500E-01 0.500 F 0.005 -0.341 +12° 35' 51.50" 1.000E-01 0.500 F 0.261 0.438 20.3 V 0.70 0.24 o 691 1.11 Yes Yes
2017FP64 O C 2017-04-24.15673 1.000E-05 08:51:27.790 1.500E-01 0.500 F 0.028 -0.226 +16° 47' 57.70" 1.000E-01 0.500 F 0.208 0.049 20.5 V 0.70 0.33 o 691 0.47 Yes Yes
2016XH2 O C 2017-04-24.15877 1.000E-05 09:38:16.090 1.500E-01 0.500 F 0.005 -0.569 +12° 35' 35.40" 1.000E-01 0.500 F 0.261 0.166 20.3 V 0.70 0.24 o 691 1.19 Yes Yes
2017AP20 O C K 2017-04-24.21734 1.000E-05 11:37:27.640 1.500E-01 0.500 F 0.055 0.177 +20° 47' 45.30" 1.000E-01 0.500 F 0.295 0.105 21.2 R 0.70 0.14 o 691 0.41 Yes Yes
2017GQ5 O C K 2017-04-24.22395 1.000E-05 11:42:23.570 1.500E-01 0.500 F 0.061 -0.739 +23° 20' 30.90" 1.000E-01 0.500 F 0.189 0.795 19.8 R 0.70 -1.32 o 691 2.22 Yes Yes
2017FE101 O C K 2017-04-24.23115 1.000E-05 11:46:04.510 1.500E-01 0.500 F 0.147 -0.282 +15° 15' 29.00" 1.000E-01 0.500 F 0.248 -0.386 21.1 R 0.70 -0.03 o 691 0.97 Yes Yes
2017FM128 O C K 2017-04-24.23943 1.000E-05 11:48:57.890 1.500E-01 0.500 F 0.166 0.073 +14° 25' 10.00" 1.000E-01 0.500 F 0.219 0.030 o 691 0.16 Yes No
2017AP20 O C K 2017-04-24.24397 1.000E-05 11:37:26.820 1.500E-01 0.500 F 0.055 -0.459 +20° 47' 29.10" 1.000E-01 0.500 F 0.295 -0.022 21.2 R 0.70 0.14 o 691 0.92 Yes Yes
2017GQ5 O C K 2017-04-24.25057 1.000E-05 11:42:17.830 1.500E-01 0.500 F 0.061 -0.232 +23° 21' 41.20" 1.000E-01 0.500 F 0.189 0.005 20.4 R 0.70 -0.72 o 691 0.47 Yes Yes
2017FE101 O C K 2017-04-24.25774 1.000E-05 11:46:03.260 1.500E-01 0.500 F 0.147 -0.316 +15° 16' 12.40" 1.000E-01 0.500 F 0.248 0.383 20.2 R 0.70 -0.93 o 691 1.00 Yes Yes
2017FM128 O C K 2017-04-24.26602 1.000E-05 11:49:08.850 1.500E-01 0.500 F 0.169 0.366 +14° 24' 01.30" 1.000E-01 0.500 F 0.193 0.113 20.0 R 0.70 0.08 o 691 0.79 Yes Yes
2017AP20 O C K 2017-04-24.27053 1.000E-05 11:37:26.080 1.500E-01 0.500 F 0.055 -0.060 +20° 47' 13.20" 1.000E-01 0.500 F 0.295 0.159 o 691 0.34 Yes No

[1-200] [201-400] [401-600] [601-800] [801-1000] [1001-1200] [1201-1400] [1401-1600] [1601-1800] [1801-2000] [2001-2200] [2201-2400] [2401-2600] [2601-2800] [2801-3000] [3001-3200] [3201-3400] [3401-3600] [3601-3800] [3801-4000] [4001-4200] [4201-4400] [4401-4600] [4601-4800] [4801-5000] [5001-5200] [5201-5400] [5401-5600] [5601-5800] [5801-6000] [6001-6200] [6201-6400] [6401-6600] [6601-6800] [6801-7000] [7001-7200] [7201-7400] [7401-7600] [7601-7800] [7801-8000] [8001-8200] [8201-8400] [8401-8600] [8601-8800] [8801-9000] [9001-9200] [9201-9400] [9401-9600] [9601-9800] [9801-10000] [10001-10200] [10201-10400] [10401-10600] [10601-10800] [10801-11000] [11001-11200] [11201-11400] [11401-11600] [11601-11800] [11801-12000] [12001-12200] [12201-12400] [12401-12600] [12601-12800] [12801-13000] [13001-13200] [13201-13400] [13401-13600] [13601-13800] [13801-14000] [14001-14200] [14201-14400] [14401-14600] [14601-14800] [14801-15000] [15001-15200] [15201-15400] [15401-15600] [15601-15800] [15801-16000] [16001-16200] [16201-16400] [16401-16600] [16601-16800] [16801-17000] [17001-17200] [17201-17400] [17401-17600] [17601-17800] [17801-18000] [18001-18200] [18201-18400] [18401-18600] [18601-18800] [18801-19000] [19001-19200] [19201-19400] [19401-19600] [19601-19800] [19801-20000] [20001-20200] [20201-20400] [20401-20600] [20601-20800] [20801-21000] [21001-21200] [21201-21400] [21401-21600] [21601-21800] [21801-22000] [22001-22200] [22201-22400] [22401-22600] [22601-22800] [22801-23000] [23001-23200] [23201-23400] [23401-23600] [23601-23800] [23801-24000] [24001-24200] [24201-24400] [24401-24600] [24601-24800] [24801-25000] [25001-25200] [25201-25400] [25401-25600] [25601-25800] [25801-26000] [26001-26200] [26201-26400] [26401-26600] [26601-26800] [26801-27000] [27001-27200] [27201-27400] [27401-27600] [27601-27800] [27801-28000] [28001-28200] [28201-28400] [28401-28600] [28601-28800] [28801-29000] [29001-29200] [29201-29400] [29401-29600] [29601-29800] [29801-30000] [30001-30200] [30201-30400] [30401-30600] [30601-30800] [30801-31000] [31001-31200] [31201-31400] [31401-31600] [31601-31800] [31801-32000] [32001-32200] [32201-32400] [32401-32600] [32601-32800] [32801-33000] [33001-33200] [33201-33400] [33401-33600] [33601-33800] [33801-34000] [34001-34200] [34201-34400] [34401-34600] [34601-34800] [34801-35000] [35001-35200] [35201-35400] [35401-35600] [35601-35800] [35801-36000] [36001-36200] [36201-36400] [36401-36600] [36601-36800] [36801-37000] [37001-37200] [37201-37400] [37401-37600] [37601-37800] [37801-38000] [38001-38200] [38201-38400] [38401-38600] [38601-38800] [38801-39000] [39001-39200] [39201-39400] [39401-39600] [39601-39800] [39801-40000] [40001-40200] [40201-40400] [40401-40600] [40601-40800] [40801-41000] [41001-41200] [41201-41400] [41401-41600] [41601-41800] [41801-42000] [42001-42200] [42201-42400] [42401-42600] [42601-42800] [42801-43000] [43001-43200] [43201-43400] [43401-43600] [43601-43800] [43801-44000] [44001-44200] [44201-44400] [44401-44600] [44601-44800] [44801-45000] [45001-45200] [45201-45400] [45401-45600] [45601-45800] [45801-46000] [46001-46200] [46201-46400] [46401-46600] [46601-46800] [46801-47000] [47001-47200] [47201-47400] [47401-47600] [47601-47800] [47801-48000] [48001-48200] [48201-48400] [48401-48600] [48601-48800] [48801-49000] [49001-49200] [49201-49400] [49401-49600] [49601-49800] [49801-50000] [50001-50200] [50201-50388]